createdAt,value
2016-07-19T00:00:39.377Z,972.18
2016-07-19T00:01:39.382Z,972.13
2016-07-19T00:02:39.378Z,972.14
2016-07-19T00:03:39.387Z,972.14
2016-07-19T00:04:39.385Z,972.13
2016-07-19T00:05:39.388Z,972.13
2016-07-19T00:06:39.390Z,972.14
2016-07-19T00:07:39.389Z,972.13
2016-07-19T00:08:39.390Z,972.12
2016-07-19T00:09:39.399Z,972.11
2016-07-19T00:10:39.395Z,972.13
2016-07-19T00:11:39.398Z,972.12
2016-07-19T00:12:39.398Z,972.12
2016-07-19T00:13:39.398Z,972.15
2016-07-19T00:14:39.402Z,972.15
2016-07-19T00:15:39.402Z,972.17
2016-07-19T00:16:39.406Z,972.16
2016-07-19T00:17:39.406Z,972.15
2016-07-19T00:18:39.406Z,972.16
2016-07-19T00:19:39.410Z,972.16
2016-07-19T00:20:39.410Z,972.19
2016-07-19T00:21:39.414Z,972.15
2016-07-19T00:22:39.415Z,972.15
2016-07-19T00:23:39.414Z,972.15
2016-07-19T00:24:39.419Z,972.14
2016-07-19T00:25:39.418Z,972.12
2016-07-19T00:26:39.422Z,972.15
2016-07-19T00:27:39.422Z,972.1
2016-07-19T00:28:39.422Z,972.12
2016-07-19T00:29:39.426Z,972.11
2016-07-19T00:30:39.426Z,972.16
2016-07-19T00:31:39.427Z,972.12
2016-07-19T00:32:39.430Z,972.12
2016-07-19T00:33:39.431Z,972.1
2016-07-19T00:34:39.431Z,972.12
2016-07-19T00:35:39.435Z,972.13
2016-07-19T00:36:39.436Z,972.09
2016-07-19T00:37:39.439Z,972.08
2016-07-19T00:38:39.440Z,972.07
2016-07-19T00:39:39.445Z,972.1
2016-07-19T00:40:39.445Z,972.09
2016-07-19T00:41:39.445Z,972.08
2016-07-19T00:42:39.448Z,972.08
2016-07-19T00:43:39.450Z,972.09
2016-07-19T00:44:39.454Z,972.07
2016-07-19T00:45:39.454Z,972.06
2016-07-19T00:46:39.454Z,972.1
2016-07-19T00:47:39.458Z,972.08
2016-07-19T00:48:39.458Z,972.08
2016-07-19T00:49:39.458Z,972.08
2016-07-19T00:50:39.463Z,972.11
2016-07-19T00:51:39.463Z,972.12
2016-07-19T00:52:39.462Z,972.11
2016-07-19T00:53:39.467Z,972.11
2016-07-19T00:54:39.466Z,972.06
2016-07-19T00:55:39.471Z,972.09
2016-07-19T00:56:39.471Z,972.14
2016-07-19T00:57:39.470Z,972.1
2016-07-19T00:58:39.475Z,972.1
2016-07-19T00:59:39.475Z,972.08
2016-07-19T01:00:39.475Z,972.08
2016-07-19T01:01:39.479Z,972.1
2016-07-19T01:02:39.479Z,972.09
2016-07-19T01:03:39.479Z,972.08
2016-07-19T01:04:39.484Z,972.08
2016-07-19T01:05:39.479Z,972.11
2016-07-19T01:06:39.487Z,972.09
2016-07-19T01:07:39.487Z,972.11
2016-07-19T01:08:39.487Z,972.1
2016-07-19T01:09:39.490Z,972.07
2016-07-19T01:10:39.491Z,972.12
2016-07-19T01:11:39.491Z,972.05
2016-07-19T01:12:39.495Z,972.09
2016-07-19T01:13:39.495Z,972.07
2016-07-19T01:14:39.495Z,972.08
2016-07-19T01:15:39.500Z,972.08
2016-07-19T01:16:39.499Z,972.09
2016-07-19T01:17:39.499Z,972.08
2016-07-19T01:18:39.503Z,972.04
2016-07-19T01:19:39.503Z,972.05
2016-07-19T01:20:39.507Z,972.03
2016-07-19T01:21:39.507Z,972.01
2016-07-19T01:22:39.507Z,972.05
2016-07-19T01:23:39.507Z,972.03
2016-07-19T01:24:39.512Z,972
2016-07-19T01:25:39.511Z,972.02
2016-07-19T01:26:39.512Z,972.01
2016-07-19T01:27:39.515Z,971.99
2016-07-19T01:28:39.516Z,971.99
2016-07-19T01:29:39.516Z,971.96
2016-07-19T01:30:39.520Z,971.96
2016-07-19T01:31:39.520Z,971.97
2016-07-19T01:32:39.520Z,971.95
2016-07-19T01:33:39.539Z,971.96
2016-07-19T01:34:39.524Z,972.01
2016-07-19T01:35:39.524Z,971.96
2016-07-19T01:36:39.528Z,971.95
2016-07-19T01:37:39.528Z,971.98
2016-07-19T01:38:39.528Z,971.98
2016-07-19T01:39:39.532Z,972
2016-07-19T01:40:39.532Z,971.93
2016-07-19T01:41:39.533Z,972
2016-07-19T01:42:39.635Z,971.94
2016-07-19T01:43:39.536Z,971.94
2016-07-19T01:44:39.536Z,971.94
2016-07-19T01:45:39.540Z,971.91
2016-07-19T01:46:39.539Z,971.96
2016-07-19T01:47:39.541Z,971.95
2016-07-19T01:48:39.544Z,971.89
2016-07-19T01:49:39.545Z,971.94
2016-07-19T01:50:39.544Z,971.94
2016-07-19T01:51:39.554Z,971.98
2016-07-19T01:52:39.550Z,971.96
2016-07-19T01:53:39.549Z,971.97
2016-07-19T01:54:39.549Z,971.97
2016-07-19T01:55:39.553Z,972
2016-07-19T01:56:39.553Z,971.97
2016-07-19T01:57:39.557Z,971.96
2016-07-19T01:58:39.557Z,971.96
2016-07-19T01:59:39.557Z,971.97
2016-07-19T02:00:39.557Z,971.94
2016-07-19T02:01:39.562Z,971.94
2016-07-19T02:02:39.566Z,971.96
2016-07-19T02:03:39.562Z,971.99
2016-07-19T02:04:39.566Z,971.97
2016-07-19T02:05:39.565Z,971.94
2016-07-19T02:06:39.566Z,971.92
2016-07-19T02:07:39.569Z,971.92
2016-07-19T02:08:39.570Z,971.9
2016-07-19T02:09:39.569Z,971.9
2016-07-19T02:10:39.570Z,971.9
2016-07-19T02:11:39.574Z,971.89
2016-07-19T02:12:39.574Z,971.9
2016-07-19T02:13:39.573Z,971.91
2016-07-19T02:14:39.578Z,971.91
2016-07-19T02:15:39.576Z,971.9
2016-07-19T02:16:39.577Z,971.88
2016-07-19T02:17:39.582Z,971.91
2016-07-19T02:18:39.581Z,971.9
2016-07-19T02:19:39.582Z,971.92
2016-07-19T02:20:39.585Z,971.93
2016-07-19T02:21:39.586Z,971.93
2016-07-19T02:22:39.586Z,971.93
2016-07-19T02:23:39.585Z,971.92
2016-07-19T02:24:39.590Z,971.94
2016-07-19T02:25:39.590Z,971.96
2016-07-19T02:26:39.590Z,971.96
2016-07-19T02:27:39.589Z,971.96
2016-07-19T02:28:39.594Z,971.96
2016-07-19T02:29:39.594Z,971.91
2016-07-19T02:30:39.597Z,971.94
2016-07-19T02:31:39.598Z,971.94
2016-07-19T02:32:39.598Z,971.98
2016-07-19T02:33:39.597Z,971.95
2016-07-19T02:34:39.602Z,971.96
2016-07-19T02:35:39.601Z,971.95
2016-07-19T02:36:39.602Z,971.92
2016-07-19T02:37:39.606Z,971.92
2016-07-19T02:38:39.606Z,971.94
2016-07-19T02:39:39.606Z,971.98
2016-07-19T02:40:39.606Z,971.92
2016-07-19T02:41:39.611Z,971.93
2016-07-19T02:42:39.610Z,971.88
2016-07-19T02:43:39.611Z,971.91
2016-07-19T02:44:39.614Z,971.96
2016-07-19T02:45:39.615Z,971.9
2016-07-19T02:46:39.615Z,971.91
2016-07-19T02:47:39.614Z,971.92
2016-07-19T02:48:39.617Z,971.86
2016-07-19T02:49:39.619Z,971.87
2016-07-19T02:50:39.618Z,971.88
2016-07-19T02:51:39.619Z,971.88
2016-07-19T02:52:39.622Z,971.88
2016-07-19T02:53:39.622Z,971.87
2016-07-19T02:54:39.622Z,971.84
2016-07-19T02:55:39.638Z,971.85
2016-07-19T02:56:39.626Z,971.83
2016-07-19T02:57:39.626Z,971.8
2016-07-19T02:58:39.626Z,971.86
2016-07-19T02:59:39.630Z,971.82
2016-07-19T03:00:39.631Z,971.81
2016-07-19T03:01:39.630Z,971.81
2016-07-19T03:02:39.631Z,971.8
2016-07-19T03:03:39.635Z,971.82
2016-07-19T03:04:39.635Z,971.81
2016-07-19T03:05:39.635Z,971.84
2016-07-19T03:06:39.639Z,971.8
2016-07-19T03:07:39.639Z,971.8
2016-07-19T03:08:39.642Z,971.8
2016-07-19T03:09:39.639Z,971.8
2016-07-19T03:10:39.643Z,971.82
2016-07-19T03:11:39.643Z,971.81
2016-07-19T03:12:39.643Z,971.82
2016-07-19T03:13:39.643Z,971.83
2016-07-19T03:14:39.647Z,971.8
2016-07-19T03:15:39.647Z,971.84
2016-07-19T03:16:39.647Z,971.81
2016-07-19T03:17:39.647Z,971.79
2016-07-19T03:18:39.651Z,971.83
2016-07-19T03:19:39.651Z,971.8
2016-07-19T03:20:39.651Z,971.81
2016-07-19T03:21:39.651Z,971.84
2016-07-19T03:22:39.655Z,971.83
2016-07-19T03:23:39.660Z,971.84
2016-07-19T03:24:39.655Z,971.87
2016-07-19T03:25:39.655Z,971.84
2016-07-19T03:26:39.660Z,971.85
2016-07-19T03:27:39.669Z,971.87
2016-07-19T03:28:39.659Z,971.9
2016-07-19T03:29:39.660Z,971.88
2016-07-19T03:30:39.663Z,971.89
2016-07-19T03:31:39.664Z,971.93
2016-07-19T03:32:39.663Z,971.94
2016-07-19T03:33:39.664Z,971.93
2016-07-19T03:34:39.668Z,971.95
2016-07-19T03:35:39.668Z,971.91
2016-07-19T03:36:39.668Z,971.91
2016-07-19T03:37:39.667Z,971.95
2016-07-19T03:38:39.671Z,971.91
2016-07-19T03:39:39.671Z,971.9
2016-07-19T03:40:39.672Z,971.93
2016-07-19T03:41:39.672Z,971.92
2016-07-19T03:42:39.723Z,971.96
2016-07-19T03:43:39.675Z,971.96
2016-07-19T03:44:39.675Z,971.96
2016-07-19T03:45:39.676Z,971.96
2016-07-19T03:46:39.680Z,971.96
2016-07-19T03:47:39.680Z,971.93
2016-07-19T03:48:39.680Z,971.94
2016-07-19T03:49:39.685Z,971.97
2016-07-19T03:50:39.685Z,971.9
2016-07-19T03:51:39.684Z,971.93
2016-07-19T03:52:39.683Z,971.93
2016-07-19T03:53:39.688Z,971.97
2016-07-19T03:54:39.689Z,972
2016-07-19T03:55:39.688Z,971.98
2016-07-19T03:56:39.688Z,971.98
2016-07-19T03:57:39.693Z,972
2016-07-19T03:58:39.692Z,972.01
2016-07-19T03:59:39.692Z,972.02
2016-07-19T04:00:39.692Z,972
2016-07-19T04:01:39.697Z,972.04
2016-07-19T04:02:39.696Z,972.03
2016-07-19T04:03:39.697Z,972.03
2016-07-19T04:04:39.696Z,972.02
2016-07-19T04:05:39.700Z,972.07
2016-07-19T04:06:39.700Z,972.05
2016-07-19T04:07:39.701Z,972.07
2016-07-19T04:08:39.701Z,972.04
2016-07-19T04:09:39.707Z,971.99
2016-07-19T04:10:39.705Z,972
2016-07-19T04:11:39.704Z,971.97
2016-07-19T04:12:39.705Z,971.95
2016-07-19T04:13:39.705Z,971.95
2016-07-19T04:14:39.709Z,971.9
2016-07-19T04:15:39.709Z,971.95
2016-07-19T04:16:39.710Z,971.91
2016-07-19T04:17:39.709Z,971.91
2016-07-19T04:18:39.712Z,971.9
2016-07-19T04:19:39.714Z,971.93
2016-07-19T04:20:39.713Z,971.94
2016-07-19T04:21:39.714Z,971.95
2016-07-19T04:22:39.713Z,971.96
2016-07-19T04:23:39.717Z,971.91
2016-07-19T04:24:39.718Z,971.92
2016-07-19T04:25:39.718Z,971.94
2016-07-19T04:26:39.717Z,971.9
2016-07-19T04:27:39.722Z,971.92
2016-07-19T04:28:39.720Z,971.91
2016-07-19T04:29:39.721Z,971.91
2016-07-19T04:30:39.721Z,971.92
2016-07-19T04:31:39.722Z,971.95
2016-07-19T04:32:39.724Z,971.94
2016-07-19T04:33:39.725Z,971.98
2016-07-19T04:34:39.725Z,972.01
2016-07-19T04:35:39.725Z,971.99
2016-07-19T04:36:39.729Z,972.01
2016-07-19T04:37:39.729Z,972.01
2016-07-19T04:38:39.730Z,972.04
2016-07-19T04:39:39.729Z,972.04
2016-07-19T04:40:39.734Z,972.05
2016-07-19T04:41:39.733Z,972.1
2016-07-19T04:42:39.734Z,972.08
2016-07-19T04:43:39.732Z,972.04
2016-07-19T04:44:39.737Z,972.05
2016-07-19T04:45:39.737Z,972.1
2016-07-19T04:46:39.736Z,972.09
2016-07-19T04:47:39.738Z,972.11
2016-07-19T04:48:39.740Z,972.11
2016-07-19T04:49:39.742Z,972.1
2016-07-19T04:50:39.741Z,972.09
2016-07-19T04:51:39.742Z,972.11
2016-07-19T04:52:39.746Z,972.13
2016-07-19T04:53:39.746Z,972.1
2016-07-19T04:54:39.746Z,972.1
2016-07-19T04:55:39.746Z,972.11
2016-07-19T04:56:39.750Z,972.08
2016-07-19T04:57:39.750Z,972.07
2016-07-19T04:58:39.750Z,972.01
2016-07-19T04:59:39.750Z,972.06
2016-07-19T05:00:40.154Z,972.06
2016-07-19T05:01:39.754Z,972.06
2016-07-19T05:02:39.754Z,972.03
2016-07-19T05:03:39.758Z,972.04
2016-07-19T05:04:39.757Z,972.06
2016-07-19T05:05:39.759Z,972.07
2016-07-19T05:06:39.758Z,972.1
2016-07-19T05:07:39.762Z,972.09
2016-07-19T05:08:39.762Z,972.07
2016-07-19T05:09:39.763Z,972.11
2016-07-19T05:10:39.780Z,972.13
2016-07-19T05:11:39.765Z,972.16
2016-07-19T05:12:39.765Z,972.19
2016-07-19T05:13:39.765Z,972.19
2016-07-19T05:14:39.769Z,972.18
2016-07-19T05:15:39.773Z,972.19
2016-07-19T05:16:39.769Z,972.22
2016-07-19T05:17:39.779Z,972.18
2016-07-19T05:18:39.774Z,972.2
2016-07-19T05:19:39.774Z,972.17
2016-07-19T05:20:39.778Z,972.17
2016-07-19T05:21:39.779Z,972.15
2016-07-19T05:22:39.783Z,972.17
2016-07-19T05:23:39.782Z,972.16
2016-07-19T05:24:39.782Z,972.19
2016-07-19T05:25:39.786Z,972.19
2016-07-19T05:26:39.787Z,972.21
2016-07-19T05:27:39.786Z,972.2
2016-07-19T05:28:39.791Z,972.23
2016-07-19T05:29:39.790Z,972.22
2016-07-19T05:30:39.791Z,972.21
2016-07-19T05:31:39.794Z,972.24
2016-07-19T05:32:39.794Z,972.2
2016-07-19T05:33:39.794Z,972.21
2016-07-19T05:34:39.799Z,972.22
2016-07-19T05:35:39.799Z,972.17
2016-07-19T05:36:39.803Z,972.19
2016-07-19T05:37:39.802Z,972.19
2016-07-19T05:38:39.803Z,972.21
2016-07-19T05:39:39.807Z,972.21
2016-07-19T05:40:39.807Z,972.21
2016-07-19T05:41:39.807Z,972.25
2016-07-19T05:42:40.011Z,972.21
2016-07-19T05:43:39.811Z,972.2
2016-07-19T05:44:39.811Z,972.18
2016-07-19T05:45:39.815Z,972.21
2016-07-19T05:46:39.815Z,972.23
2016-07-19T05:47:39.819Z,972.25
2016-07-19T05:48:39.819Z,972.2
2016-07-19T05:49:39.823Z,972.16
2016-07-19T05:50:39.823Z,972.15
2016-07-19T05:51:39.823Z,972.17
2016-07-19T05:52:39.837Z,972.2
2016-07-19T05:53:39.837Z,972.19
2016-07-19T05:54:39.832Z,972.2
2016-07-19T05:55:39.831Z,972.2
2016-07-19T05:56:39.832Z,972.21
2016-07-19T05:57:39.835Z,972.21
2016-07-19T05:58:39.835Z,972.19
2016-07-19T05:59:39.839Z,972.19
2016-07-19T06:00:39.840Z,972.2
2016-07-19T06:01:39.844Z,972.16
2016-07-19T06:02:39.843Z,972.18
2016-07-19T06:03:39.844Z,972.2
2016-07-19T06:04:39.848Z,972.2
2016-07-19T06:05:39.848Z,972.2
2016-07-19T06:06:39.852Z,972.19
2016-07-19T06:07:39.851Z,972.21
2016-07-19T06:08:39.856Z,972.26
2016-07-19T06:09:39.849Z,972.26
2016-07-19T06:10:39.856Z,972.28
2016-07-19T06:11:39.860Z,972.32
2016-07-19T06:12:39.860Z,972.26
2016-07-19T06:13:39.864Z,972.28
2016-07-19T06:14:39.863Z,972.27
2016-07-19T06:15:39.868Z,972.26
2016-07-19T06:16:39.873Z,972.29
2016-07-19T06:17:39.872Z,972.24
2016-07-19T06:18:39.872Z,972.26
2016-07-19T06:19:39.876Z,972.3
2016-07-19T06:20:39.876Z,972.28
2016-07-19T06:21:39.880Z,972.3
2016-07-19T06:22:39.879Z,972.26
2016-07-19T06:23:39.884Z,972.26
2016-07-19T06:24:39.883Z,972.3
2016-07-19T06:25:39.884Z,972.3
2016-07-19T06:26:39.891Z,972.25
2016-07-19T06:27:39.888Z,972.25
2016-07-19T06:28:39.894Z,972.26
2016-07-19T06:29:39.892Z,972.25
2016-07-19T06:30:39.900Z,972.25
2016-07-19T06:31:39.895Z,972.23
2016-07-19T06:32:39.901Z,972.2
2016-07-19T06:33:39.900Z,972.25
2016-07-19T06:34:39.905Z,972.23
2016-07-19T06:35:39.905Z,972.24
2016-07-19T06:36:39.909Z,972.26
2016-07-19T06:37:39.909Z,972.22
2016-07-19T06:38:39.913Z,972.22
2016-07-19T06:39:39.912Z,972.24
2016-07-19T06:40:39.916Z,972.17
2016-07-19T06:41:39.917Z,972.16
2016-07-19T06:42:39.920Z,972.18
2016-07-19T06:43:39.921Z,972.2
2016-07-19T06:44:39.925Z,972.22
2016-07-19T06:45:39.924Z,972.18
2016-07-19T06:46:39.926Z,972.19
2016-07-19T06:47:39.922Z,972.18
2016-07-19T06:48:39.926Z,972.18
2016-07-19T06:49:39.927Z,972.16
2016-07-19T06:50:59.134Z,972.17
2016-07-19T06:51:39.931Z,972.12
2016-07-19T06:52:39.934Z,972.13
2016-07-19T06:53:39.938Z,972.17
2016-07-19T06:54:39.939Z,972.15
2016-07-19T06:55:39.939Z,972.12
2016-07-19T06:56:39.942Z,972.14
2016-07-19T06:57:39.947Z,972.15
2016-07-19T06:58:39.947Z,972.09
2016-07-19T06:59:39.951Z,972.15
2016-07-19T07:00:42.987Z,972.07
2016-07-19T07:01:39.955Z,972.13
2016-07-19T07:02:39.956Z,972.09
2016-07-19T07:03:39.959Z,972.12
2016-07-19T07:04:39.966Z,972.12
2016-07-19T07:05:39.970Z,972.12
2016-07-19T07:06:39.970Z,972.12
2016-07-19T07:07:39.975Z,972.11
2016-07-19T07:08:39.974Z,972.13
2016-07-19T07:09:39.979Z,972.16
2016-07-19T07:10:39.982Z,972.18
2016-07-19T07:11:39.982Z,972.16
2016-07-19T07:12:39.992Z,972.16
2016-07-19T07:13:39.990Z,972.13
2016-07-19T07:14:39.991Z,972.17
2016-07-19T07:15:39.990Z,972.16
2016-07-19T07:16:39.995Z,972.14
2016-07-19T07:17:39.995Z,972.16
2016-07-19T07:18:39.999Z,972.16
2016-07-19T07:19:40.002Z,972.16
2016-07-19T07:20:40.003Z,972.18
2016-07-19T07:21:40.003Z,972.15
2016-07-19T07:22:40.007Z,972.18
2016-07-19T07:23:40.006Z,972.19
2016-07-19T07:24:40.011Z,972.19
2016-07-19T07:25:40.014Z,972.23
2016-07-19T07:26:40.015Z,972.2
2016-07-19T07:27:40.019Z,972.23
2016-07-19T07:28:40.019Z,972.24
2016-07-19T07:29:40.023Z,972.23
2016-07-19T07:30:40.023Z,972.21
2016-07-19T07:31:40.028Z,972.2
2016-07-19T07:32:40.031Z,972.26
2016-07-19T07:33:40.031Z,972.22
2016-07-19T07:34:40.036Z,972.25
2016-07-19T07:35:40.036Z,972.25
2016-07-19T07:36:40.036Z,972.29
2016-07-19T07:37:40.039Z,972.29
2016-07-19T07:38:40.042Z,972.24
2016-07-19T07:39:40.043Z,972.28
2016-07-19T07:40:40.047Z,972.29
2016-07-19T07:41:40.048Z,972.26
2016-07-19T07:42:40.052Z,972.21
2016-07-19T07:43:40.054Z,972.27
2016-07-19T07:44:40.056Z,972.21
2016-07-19T07:45:40.060Z,972.23
2016-07-19T07:46:40.059Z,972.23
2016-07-19T07:47:40.064Z,972.22
2016-07-19T07:48:40.067Z,972.23
2016-07-19T07:49:40.069Z,972.24
2016-07-19T07:50:40.073Z,972.21
2016-07-19T07:51:40.072Z,972.24
2016-07-19T07:52:40.076Z,972.24
2016-07-19T07:53:40.077Z,972.22
2016-07-19T07:54:40.080Z,972.21
2016-07-19T07:55:40.084Z,972.2
2016-07-19T07:56:40.083Z,972.21
2016-07-19T07:57:40.084Z,972.21
2016-07-19T07:58:40.087Z,972.26
2016-07-19T07:59:40.092Z,972.26
2016-07-19T08:00:40.092Z,972.23
2016-07-19T08:01:40.096Z,972.29
2016-07-19T08:02:40.100Z,972.28
2016-07-19T08:03:40.100Z,972.26
2016-07-19T08:04:40.104Z,972.26
2016-07-19T08:05:40.104Z,972.26
2016-07-19T08:06:40.109Z,972.28
2016-07-19T08:07:40.108Z,972.28
2016-07-19T08:08:40.114Z,972.26
2016-07-19T08:09:40.113Z,972.24
2016-07-19T08:10:40.117Z,972.23
2016-07-19T08:11:40.120Z,972.25
2016-07-19T08:12:40.121Z,972.23
2016-07-19T08:13:40.124Z,972.24
2016-07-19T08:14:40.124Z,972.25
2016-07-19T08:15:40.128Z,972.26
2016-07-19T08:16:40.133Z,972.27
2016-07-19T08:17:40.133Z,972.24
2016-07-19T08:18:40.137Z,972.22
2016-07-19T08:19:40.133Z,972.22
2016-07-19T08:20:40.140Z,972.23
2016-07-19T08:21:40.145Z,972.17
2016-07-19T08:22:40.145Z,972.2
2016-07-19T08:23:40.148Z,972.18
2016-07-19T08:24:40.149Z,972.2
2016-07-19T08:25:40.153Z,972.14
2016-07-19T08:26:40.153Z,972.17
2016-07-19T08:27:40.157Z,972.18
2016-07-19T08:28:40.162Z,972.14
2016-07-19T08:29:40.160Z,972.19
2016-07-19T08:30:40.165Z,972.18
2016-07-19T08:31:40.165Z,972.17
2016-07-19T08:32:40.169Z,972.15
2016-07-19T08:33:40.173Z,972.18
2016-07-19T08:34:40.173Z,972.18
2016-07-19T08:35:40.177Z,972.16
2016-07-19T08:36:40.177Z,972.12
2016-07-19T08:37:40.181Z,972.12
2016-07-19T08:38:40.185Z,972.16
2016-07-19T08:39:40.185Z,972.1
2016-07-19T08:40:40.188Z,972.12
2016-07-19T08:41:40.195Z,972.17
2016-07-19T08:42:40.246Z,972.13
2016-07-19T08:43:40.197Z,972.14
2016-07-19T08:44:40.197Z,972.16
2016-07-19T08:45:40.200Z,972.09
2016-07-19T08:46:40.206Z,972.07
2016-07-19T08:47:40.206Z,972.1
2016-07-19T08:48:40.210Z,972.1
2016-07-19T08:49:40.210Z,972.09
2016-07-19T08:50:40.213Z,972.11
2016-07-19T08:51:40.214Z,972.11
2016-07-19T08:52:40.218Z,972.14
2016-07-19T08:53:40.222Z,972.15
2016-07-19T08:54:40.222Z,972.12
2016-07-19T08:55:40.226Z,972.09
2016-07-19T08:56:40.230Z,972.06
2016-07-19T08:57:40.229Z,972.06
2016-07-19T08:58:40.234Z,972.07
2016-07-19T08:59:40.235Z,972.12
2016-07-19T09:00:40.238Z,972.06
2016-07-19T09:01:40.242Z,972.04
2016-07-19T09:02:40.242Z,972.06
2016-07-19T09:03:40.246Z,972.06
2016-07-19T09:04:40.246Z,972.04
2016-07-19T09:05:40.250Z,972.03
2016-07-19T09:06:40.254Z,972.04
2016-07-19T09:07:40.254Z,972.08
2016-07-19T09:08:40.258Z,972.05
2016-07-19T09:09:40.258Z,972.04
2016-07-19T09:10:40.263Z,972.01
2016-07-19T09:11:40.266Z,972.05
2016-07-19T09:12:40.267Z,972.01
2016-07-19T09:13:40.271Z,972.02
2016-07-19T09:14:40.270Z,972.02
2016-07-19T09:15:40.275Z,972.01
2016-07-19T09:16:40.278Z,972.04
2016-07-19T09:17:40.279Z,972.08
2016-07-19T09:18:40.282Z,972.05
2016-07-19T09:19:40.287Z,972.03
2016-07-19T09:20:40.286Z,972.03
2016-07-19T09:21:40.291Z,972.04
2016-07-19T09:22:40.291Z,972.07
2016-07-19T09:23:40.295Z,972.07
2016-07-19T09:24:40.298Z,972.07
2016-07-19T09:25:40.299Z,972.04
2016-07-19T09:26:40.304Z,972.1
2016-07-19T09:27:40.302Z,972.05
2016-07-19T09:28:40.307Z,972.09
2016-07-19T09:29:40.311Z,972.1
2016-07-19T09:30:40.311Z,972.07
2016-07-19T09:31:40.316Z,972.06
2016-07-19T09:32:40.315Z,972.1
2016-07-19T09:33:40.318Z,972.06
2016-07-19T09:34:40.323Z,972.06
2016-07-19T09:35:40.323Z,972.04
2016-07-19T09:36:40.327Z,972.09
2016-07-19T09:37:40.332Z,972.06
2016-07-19T09:38:40.332Z,972.05
2016-07-19T09:39:40.334Z,972.08
2016-07-19T09:40:40.341Z,972.04
2016-07-19T09:41:40.340Z,972.04
2016-07-19T09:42:40.339Z,972.05
2016-07-19T09:43:40.344Z,972.08
2016-07-19T09:44:40.347Z,972.03
2016-07-19T09:45:40.351Z,972.04
2016-07-19T09:46:40.351Z,972.04
2016-07-19T09:47:40.355Z,972.01
2016-07-19T09:48:40.359Z,972.04
2016-07-19T09:49:40.358Z,972.03
2016-07-19T09:50:40.363Z,972.04
2016-07-19T09:51:40.363Z,972.04
2016-07-19T09:52:40.368Z,972.02
2016-07-19T09:53:40.367Z,972.03
2016-07-19T09:54:40.372Z,971.99
2016-07-19T09:55:40.376Z,971.99
2016-07-19T09:56:40.380Z,971.98
2016-07-19T09:57:40.379Z,972.01
2016-07-19T09:58:40.383Z,971.99
2016-07-19T09:59:40.384Z,971.98
2016-07-19T10:00:40.388Z,971.93
2016-07-19T10:01:40.388Z,971.96
2016-07-19T10:02:40.391Z,971.96
2016-07-19T10:03:40.396Z,971.97
2016-07-19T10:04:40.396Z,971.89
2016-07-19T10:05:40.400Z,971.91
2016-07-19T10:06:40.404Z,971.88
2016-07-19T10:07:40.404Z,971.87
2016-07-19T10:08:40.408Z,971.87
2016-07-19T10:09:40.411Z,971.86
2016-07-19T10:10:40.412Z,971.87
2016-07-19T10:11:40.416Z,971.82
2016-07-19T10:12:40.420Z,971.83
2016-07-19T10:13:40.420Z,971.84
2016-07-19T10:14:40.424Z,971.82
2016-07-19T10:15:40.423Z,971.85
2016-07-19T10:16:40.429Z,971.84
2016-07-19T10:17:40.432Z,971.81
2016-07-19T10:18:40.432Z,971.86
2016-07-19T10:19:40.436Z,971.9
2016-07-19T10:20:40.440Z,971.84
2016-07-19T10:21:40.440Z,971.85
2016-07-19T10:22:40.444Z,971.87
2016-07-19T10:23:40.444Z,971.89
2016-07-19T10:24:40.448Z,971.89
2016-07-19T10:25:40.451Z,971.83
2016-07-19T10:26:40.452Z,971.83
2016-07-19T10:27:40.456Z,971.78
2016-07-19T10:29:40.460Z,971.75
2016-07-19T10:30:40.464Z,971.75
2016-07-19T10:31:40.464Z,971.72
2016-07-19T10:32:40.467Z,971.75
2016-07-19T10:33:40.473Z,971.73
2016-07-19T10:34:40.473Z,971.71
2016-07-19T10:35:40.477Z,971.72
2016-07-19T10:36:40.480Z,971.72
2016-07-19T10:37:40.481Z,971.73
2016-07-19T10:38:40.485Z,971.72
2016-07-19T10:39:40.485Z,971.72
2016-07-19T10:40:40.489Z,971.73
2016-07-19T10:41:40.493Z,971.76
2016-07-19T10:42:40.544Z,971.78
2016-07-19T10:43:40.496Z,971.74
2016-07-19T10:44:40.496Z,971.75
2016-07-19T10:45:40.501Z,971.71
2016-07-19T10:46:40.505Z,971.72
2016-07-19T10:47:40.508Z,971.68
2016-07-19T10:48:40.509Z,971.69
2016-07-19T10:49:40.513Z,971.7
2016-07-19T10:50:40.512Z,971.66
2016-07-19T10:51:40.517Z,971.68
2016-07-19T10:52:40.517Z,971.68
2016-07-19T10:53:40.521Z,971.67
2016-07-19T10:54:40.525Z,971.64
2016-07-19T10:55:40.521Z,971.62
2016-07-19T10:56:40.529Z,971.67
2016-07-19T10:57:40.533Z,971.6
2016-07-19T10:58:40.533Z,971.59
2016-07-19T10:59:40.537Z,971.61
2016-07-19T11:00:40.541Z,971.58
2016-07-19T11:01:40.541Z,971.58
2016-07-19T11:02:40.545Z,971.53
2016-07-19T11:03:40.545Z,971.51
2016-07-19T11:04:40.549Z,971.52
2016-07-19T11:05:40.553Z,971.52
2016-07-19T11:06:40.554Z,971.52
2016-07-19T11:07:40.557Z,971.5
2016-07-19T11:08:40.561Z,971.54
2016-07-19T11:09:40.561Z,971.51
2016-07-19T11:10:40.565Z,971.53
2016-07-19T11:11:40.566Z,971.52
2016-07-19T11:12:40.569Z,971.56
2016-07-19T11:13:40.573Z,971.53
2016-07-19T11:14:40.574Z,971.57
2016-07-19T11:15:40.577Z,971.51
2016-07-19T11:16:40.581Z,971.53
2016-07-19T11:17:40.581Z,971.52
2016-07-19T11:18:40.586Z,971.54
2016-07-19T11:19:40.586Z,971.53
2016-07-19T11:20:40.590Z,971.52
2016-07-19T11:21:40.593Z,971.55
2016-07-19T11:22:40.594Z,971.52
2016-07-19T11:23:40.597Z,971.5
2016-07-19T11:24:40.597Z,971.51
2016-07-19T11:25:40.602Z,971.5
2016-07-19T11:26:40.606Z,971.5
2016-07-19T11:27:40.605Z,971.48
2016-07-19T11:28:40.609Z,971.44
2016-07-19T11:29:40.614Z,971.43
2016-07-19T11:30:40.614Z,971.42
2016-07-19T11:31:40.618Z,971.39
2016-07-19T11:32:40.619Z,971.38
2016-07-19T11:33:40.622Z,971.35
2016-07-19T11:34:40.626Z,971.35
2016-07-19T11:35:40.626Z,971.33
2016-07-19T11:36:40.630Z,971.29
2016-07-19T11:37:40.634Z,971.33
2016-07-19T11:38:40.634Z,971.31
2016-07-19T11:39:40.638Z,971.29
2016-07-19T11:40:40.637Z,971.33
2016-07-19T11:41:40.642Z,971.32
2016-07-19T11:42:40.646Z,971.31
2016-07-19T11:43:40.651Z,971.31
2016-07-19T11:44:40.650Z,971.29
2016-07-19T11:45:40.654Z,971.31
2016-07-19T11:46:40.654Z,971.29
2016-07-19T11:47:40.662Z,971.28
2016-07-19T11:48:40.663Z,971.3
2016-07-19T11:49:40.662Z,971.29
2016-07-19T11:50:40.667Z,971.26
2016-07-19T11:51:40.670Z,971.27
2016-07-19T11:52:40.670Z,971.21
2016-07-19T11:53:40.675Z,971.22
2016-07-19T11:54:40.675Z,971.2
2016-07-19T11:55:40.683Z,971.19
2016-07-19T11:56:40.683Z,971.22
2016-07-19T11:57:40.683Z,971.22
2016-07-19T11:58:40.686Z,971.14
2016-07-19T11:59:40.690Z,971.15
2016-07-19T12:00:40.691Z,971.15
2016-07-19T12:01:40.694Z,971.14
2016-07-19T12:02:40.698Z,971.13
2016-07-19T12:03:40.698Z,971.15
2016-07-19T12:04:40.702Z,971.15
2016-07-19T12:05:40.702Z,971.13
2016-07-19T12:06:40.706Z,971.11
2016-07-19T12:07:40.710Z,971.13
2016-07-19T12:08:40.710Z,971.05
2016-07-19T12:09:40.715Z,971.06
2016-07-19T12:10:40.719Z,971.1
2016-07-19T12:11:40.719Z,971.07
2016-07-19T12:12:40.724Z,971.05
2016-07-19T12:13:40.724Z,971.05
2016-07-19T12:14:40.727Z,971.03
2016-07-19T12:15:40.731Z,971.02
2016-07-19T12:16:40.732Z,971.03
2016-07-19T12:17:40.736Z,971.02
2016-07-19T12:18:40.739Z,971.01
2016-07-19T12:19:40.738Z,971.02
2016-07-19T12:20:40.744Z,970.98
2016-07-19T12:21:40.748Z,970.97
2016-07-19T12:22:40.747Z,970.95
2016-07-19T12:23:40.752Z,970.97
2016-07-19T12:24:40.751Z,970.95
2016-07-19T12:25:40.755Z,970.96
2016-07-19T12:26:40.760Z,970.95
2016-07-19T12:27:40.760Z,970.96
2016-07-19T12:28:40.764Z,970.93
2016-07-19T12:29:40.768Z,970.93
2016-07-19T12:30:40.768Z,970.9
2016-07-19T12:31:40.772Z,970.93
2016-07-19T12:32:40.775Z,970.86